Hamlet, Illinois
Current Conditions -  °F | °C
As of 2:52 PM on Thursday 23 Oct 2014 (Local Time) from KMLI Reporting Station
Broken Clouds Broken Clouds  
Wind Chill: 61°   Ceiling: 4000
Heat Index: 61°   Visibility: 10mi
Dew Point: 46°   Wind: 9mph
Humidity: 58%   Direction: 200°SSW
Pressure: 30.04"   Gusts: NA
Location:  41.1928°N, 90.7165°W
Report Text: KMLI 231952Z 20008KT 10SM BKN040 BKN050 16/08 A3004 RMK AO2 SLP174 T01610078
Loading
Personal Weather Stations






























Interactive Weather Map
Tropical Storm Tracking
New forecast layout! Learn more

10-Day Weather Forecast

Advertisements
Track Severe Weather on mobile